Aniak, AK (99557)

2:21 AM AKDT on April 21, 2015 (GMT -0800)
Aniak | | Change Station
CLOSE
Current Station
Airport
Location: Aniak,
Elevation: 85 ft
Nearby Weather Stations

Elev 85 ft 61.58 °N, 159.54 °W | Updated 5 minutes ago

Partly Cloudy
Partly Cloudy
32 °F
Feels Like 28 °F
N
5
Wind Variable Wind from SSE

Today
High -- | Low -- °F
--% Chance of Precip.
Yesterday
High -- | Low -- °F
Precip. -- in
6:57 AM 10:17 PM
Waxing Crescent, 9% visible
Pressure 29.66 in
Visibility 10.0 miles
Clouds Few 12000 ft
Windchill 28 °F
Dew Point 21 °F
Humidity 64%
Rainfall 0.00 in
Snow Depth Not available.
UV 0 out of 12
Pollen Not available.
Air Quality Not available.
Flu Activity Sporadic
METAR PANI 211016Z 15004KT 10SM FEW120 00/M06 A2966 RMK AO1

More Conditions Fewer Conditions

Pressure 29.66 in
Visibility 10.0 miles
Clouds Few 12000 ft
Windchill 28 °F
Dew Point 21 °F
Humidity 64%
Rainfall 0.00 in
Snow Depth Not available.
UV 0 out of 12
Pollen Not available.
Air Quality Not available.
Flu Activity Sporadic
METAR PANI 211016Z 15004KT 10SM FEW120 00/M06 A2966 RMK AO1

More Conditions Fewer Conditions

10-Day Weather Forecast

Almanac

Astronomy

Apr. 21, 2015 Rise Set
Actual Time
Civil Twilight
Nautical Twilight
Astronomical Twilight
Moon
Length of Visible Light
Length of Day
Tomorrow will be .
, % of the Moon is Illuminated

Today's Extremes

State Highs State Lows

Community

WunderPhotos

Upload Photos

1,815,339 photos uploaded!

WunderBlogs® & News

Nearby

Air Quality

  Air Quality AQ Index Pollutant
Not available.

Snow Depth

Station Depth Elevation

Earthquake Activity

City Distance Mag. Time & Date
Minimum magnitude displayed is 2.5.

Coastal Water Temperatures

Place Temperature

Stations

Nearby Weather Stations

Station Location Temp. Windchill Dew Point Humidity Wind Precip. Elev Updated Type